sensor_id;sensor_type;location;lat;lon;timestamp;P1;durP1;ratioP1;P2;durP2;ratioP2
3016;SDS011;1518;52.408;13.060;2023-03-01T00:00:45;8.55;;;6.35;;
3016;SDS011;1518;52.408;13.060;2023-03-01T00:03:33;10.02;;;7.25;;
3016;SDS011;1518;52.408;13.060;2023-03-01T00:06:22;9.90;;;6.97;;
3016;SDS011;1518;52.408;13.060;2023-03-01T00:09:12;9.27;;;6.82;;
3016;SDS011;1518;52.408;13.060;2023-03-01T00:12:00;8.52;;;6.32;;
3016;SDS011;1518;52.408;13.060;2023-03-01T00:14:48;9.35;;;6.45;;
3016;SDS011;1518;52.408;13.060;2023-03-01T00:17:36;10.10;;;7.07;;
3016;SDS011;1518;52.408;13.060;2023-03-01T00:20:24;7.47;;;6.40;;
3016;SDS011;1518;52.408;13.060;2023-03-01T00:23:12;7.30;;;6.38;;
3016;SDS011;1518;52.408;13.060;2023-03-01T00:26:02;9.63;;;6.90;;
3016;SDS011;1518;52.408;13.060;2023-03-01T00:28:52;8.52;;;7.28;;
3016;SDS011;1518;52.408;13.060;2023-03-01T00:31:41;8.82;;;7.18;;
3016;SDS011;1518;52.408;13.060;2023-03-01T00:34:29;7.50;;;6.43;;
3016;SDS011;1518;52.408;13.060;2023-03-01T00:37:18;8.15;;;6.80;;
3016;SDS011;1518;52.408;13.060;2023-03-01T00:40:06;9.75;;;7.05;;
3016;SDS011;1518;52.408;13.060;2023-03-01T00:42:58;8.10;;;6.35;;
3016;SDS011;1518;52.408;13.060;2023-03-01T00:45:46;8.20;;;6.57;;
3016;SDS011;1518;52.408;13.060;2023-03-01T00:48:34;7.13;;;6.13;;
3016;SDS011;1518;52.408;13.060;2023-03-01T00:51:23;10.60;;;6.65;;
3016;SDS011;1518;52.408;13.060;2023-03-01T00:54:13;8.05;;;6.75;;
3016;SDS011;1518;52.408;13.060;2023-03-01T00:57:01;6.78;;;5.90;;
3016;SDS011;1518;52.408;13.060;2023-03-01T00:59:50;7.53;;;6.32;;
3016;SDS011;1518;52.408;13.060;2023-03-01T01:02:39;7.70;;;6.00;;
3016;SDS011;1518;52.408;13.060;2023-03-01T01:05:27;8.50;;;6.68;;
3016;SDS011;1518;52.408;13.060;2023-03-01T01:08:15;11.65;;;6.75;;
3016;SDS011;1518;52.408;13.060;2023-03-01T01:11:03;8.07;;;6.60;;
3016;SDS011;1518;52.408;13.060;2023-03-01T01:13:52;8.55;;;6.97;;
3016;SDS011;1518;52.408;13.060;2023-03-01T01:16:41;8.00;;;6.80;;
3016;SDS011;1518;52.408;13.060;2023-03-01T01:19:30;8.65;;;6.75;;
3016;SDS011;1518;52.408;13.060;2023-03-01T01:22:19;6.85;;;5.90;;
3016;SDS011;1518;52.408;13.060;2023-03-01T01:25:07;7.03;;;5.97;;
3016;SDS011;1518;52.408;13.060;2023-03-01T01:27:56;7.28;;;6.57;;
3016;SDS011;1518;52.408;13.060;2023-03-01T01:30:44;6.65;;;5.95;;
3016;SDS011;1518;52.408;13.060;2023-03-01T01:33:33;7.25;;;6.55;;
3016;SDS011;1518;52.408;13.060;2023-03-01T01:36:23;6.82;;;5.38;;
3016;SDS011;1518;52.408;13.060;2023-03-01T01:39:12;6.63;;;4.78;;
3016;SDS011;1518;52.408;13.060;2023-03-01T01:42:00;7.93;;;6.05;;
3016;SDS011;1518;52.408;13.060;2023-03-01T01:45:15;8.05;;;6.45;;
3016;SDS011;1518;52.408;13.060;2023-03-01T01:48:14;9.13;;;6.68;;
3016;SDS011;1518;52.408;13.060;2023-03-01T01:51:06;7.72;;;6.88;;
3016;SDS011;1518;52.408;13.060;2023-03-01T01:53:57;8.40;;;5.72;;
3016;SDS011;1518;52.408;13.060;2023-03-01T01:56:49;7.30;;;6.15;;
3016;SDS011;1518;52.408;13.060;2023-03-01T01:59:43;7.13;;;6.30;;
3016;SDS011;1518;52.408;13.060;2023-03-01T02:02:35;6.95;;;5.97;;
3016;SDS011;1518;52.408;13.060;2023-03-01T02:05:26;8.48;;;6.00;;
3016;SDS011;1518;52.408;13.060;2023-03-01T02:08:22;6.38;;;5.30;;
3016;SDS011;1518;52.408;13.060;2023-03-01T02:11:13;6.40;;;5.38;;
3016;SDS011;1518;52.408;13.060;2023-03-01T02:14:02;8.30;;;5.78;;
3016;SDS011;1518;52.408;13.060;2023-03-01T02:16:50;7.75;;;6.15;;
3016;SDS011;1518;52.408;13.060;2023-03-01T02:19:41;8.85;;;5.95;;
3016;SDS011;1518;52.408;13.060;2023-03-01T02:22:37;7.60;;;6.70;;
3016;SDS011;1518;52.408;13.060;2023-03-01T02:25:28;7.40;;;6.20;;
3016;SDS011;1518;52.408;13.060;2023-03-01T02:28:30;6.63;;;5.95;;
3016;SDS011;1518;52.408;13.060;2023-03-01T02:31:19;10.57;;;6.50;;
3016;SDS011;1518;52.408;13.060;2023-03-01T02:34:26;6.00;;;5.32;;
3016;SDS011;1518;52.408;13.060;2023-03-01T02:37:15;6.78;;;6.07;;
3016;SDS011;1518;52.408;13.060;2023-03-01T02:40:12;9.52;;;6.50;;
3016;SDS011;1518;52.408;13.060;2023-03-01T02:43:04;8.15;;;6.53;;
3016;SDS011;1518;52.408;13.060;2023-03-01T02:46:02;10.65;;;6.43;;
3016;SDS011;1518;52.408;13.060;2023-03-01T02:48:53;7.00;;;5.88;;
3016;SDS011;1518;52.408;13.060;2023-03-01T02:51:45;8.32;;;5.47;;
3016;SDS011;1518;52.408;13.060;2023-03-01T02:54:42;6.65;;;5.97;;
3016;SDS011;1518;52.408;13.060;2023-03-01T02:57:36;6.50;;;5.80;;
3016;SDS011;1518;52.408;13.060;2023-03-01T03:00:28;6.80;;;5.40;;
3016;SDS011;1518;52.408;13.060;2023-03-01T03:03:23;7.47;;;6.32;;
3016;SDS011;1518;52.408;13.060;2023-03-01T03:06:12;10.32;;;6.80;;
3016;SDS011;1518;52.408;13.060;2023-03-01T03:09:00;7.03;;;6.15;;
3016;SDS011;1518;52.408;13.060;2023-03-01T03:11:49;8.65;;;6.65;;
3016;SDS011;1518;52.408;13.060;2023-03-01T03:14:37;9.25;;;7.05;;
3016;SDS011;1518;52.408;13.060;2023-03-01T03:17:25;6.50;;;5.70;;
3016;SDS011;1518;52.408;13.060;2023-03-01T03:20:15;6.45;;;5.65;;
3016;SDS011;1518;52.408;13.060;2023-03-01T03:23:05;7.40;;;5.97;;
3016;SDS011;1518;52.408;13.060;2023-03-01T03:25:54;8.95;;;6.78;;
3016;SDS011;1518;52.408;13.060;2023-03-01T03:28:42;8.50;;;6.15;;
3016;SDS011;1518;52.408;13.060;2023-03-01T03:31:30;9.85;;;6.18;;
3016;SDS011;1518;52.408;13.060;2023-03-01T03:34:18;8.30;;;6.72;;
3016;SDS011;1518;52.408;13.060;2023-03-01T03:37:07;8.35;;;6.68;;
3016;SDS011;1518;52.408;13.060;2023-03-01T03:40:16;7.20;;;6.13;;
3016;SDS011;1518;52.408;13.060;2023-03-01T03:43:04;8.10;;;6.28;;
3016;SDS011;1518;52.408;13.060;2023-03-01T03:45:54;8.45;;;6.60;;
3016;SDS011;1518;52.408;13.060;2023-03-01T03:48:44;7.43;;;6.30;;
3016;SDS011;1518;52.408;13.060;2023-03-01T03:51:32;7.10;;;5.97;;
3016;SDS011;1518;52.408;13.060;2023-03-01T03:54:22;9.38;;;6.43;;
3016;SDS011;1518;52.408;13.060;2023-03-01T03:57:10;7.50;;;6.15;;
3016;SDS011;1518;52.408;13.060;2023-03-01T03:59:58;6.80;;;5.43;;
3016;SDS011;1518;52.408;13.060;2023-03-01T04:02:46;10.18;;;6.00;;
3016;SDS011;1518;52.408;13.060;2023-03-01T04:05:35;6.90;;;6.10;;
3016;SDS011;1518;52.408;13.060;2023-03-01T04:08:24;9.98;;;6.15;;
3016;SDS011;1518;52.408;13.060;2023-03-01T04:11:14;6.65;;;6.00;;
3016;SDS011;1518;52.408;13.060;2023-03-01T04:14:14;7.10;;;6.15;;
3016;SDS011;1518;52.408;13.060;2023-03-01T04:17:02;7.47;;;6.20;;
3016;SDS011;1518;52.408;13.060;2023-03-01T04:19:51;7.93;;;5.90;;
3016;SDS011;1518;52.408;13.060;2023-03-01T04:22:39;6.55;;;5.63;;
3016;SDS011;1518;52.408;13.060;2023-03-01T04:25:28;7.55;;;5.90;;
3016;SDS011;1518;52.408;13.060;2023-03-01T04:28:17;8.55;;;6.40;;
3016;SDS011;1518;52.408;13.060;2023-03-01T04:31:06;9.30;;;6.32;;
3016;SDS011;1518;52.408;13.060;2023-03-01T04:34:00;6.18;;;5.47;;
3016;SDS011;1518;52.408;13.060;2023-03-01T04:36:48;7.55;;;6.25;;
3016;SDS011;1518;52.408;13.060;2023-03-01T04:39:37;7.40;;;5.47;;
3016;SDS011;1518;52.408;13.060;2023-03-01T04:42:32;8.52;;;6.63;;
3016;SDS011;1518;52.408;13.060;2023-03-01T04:45:21;7.32;;;5.97;;
3016;SDS011;1518;52.408;13.060;2023-03-01T04:48:09;8.00;;;6.30;;
3016;SDS011;1518;52.408;13.060;2023-03-01T04:50:57;8.73;;;6.18;;
3016;SDS011;1518;52.408;13.060;2023-03-01T04:53:46;8.95;;;6.22;;
3016;SDS011;1518;52.408;13.060;2023-03-01T04:56:34;6.88;;;6.10;;
3016;SDS011;1518;52.408;13.060;2023-03-01T04:59:22;8.63;;;6.15;;
3016;SDS011;1518;52.408;13.060;2023-03-01T05:02:12;7.07;;;5.97;;
3016;SDS011;1518;52.408;13.060;2023-03-01T05:05:00;7.22;;;6.35;;
3016;SDS011;1518;52.408;13.060;2023-03-01T05:07:48;6.22;;;5.20;;
3016;SDS011;1518;52.408;13.060;2023-03-01T05:10:36;6.38;;;5.72;;
3016;SDS011;1518;52.408;13.060;2023-03-01T05:13:25;6.00;;;5.00;;
3016;SDS011;1518;52.408;13.060;2023-03-01T05:16:15;9.23;;;6.43;;
3016;SDS011;1518;52.408;13.060;2023-03-01T05:19:04;7.43;;;6.20;;
3016;SDS011;1518;52.408;13.060;2023-03-01T05:21:58;8.13;;;5.75;;
3016;SDS011;1518;52.408;13.060;2023-03-01T05:24:50;6.72;;;5.85;;
3016;SDS011;1518;52.408;13.060;2023-03-01T05:27:40;7.53;;;6.57;;
3016;SDS011;1518;52.408;13.060;2023-03-01T05:30:28;6.20;;;5.57;;
3016;SDS011;1518;52.408;13.060;2023-03-01T05:33:16;7.75;;;6.00;;
3016;SDS011;1518;52.408;13.060;2023-03-01T05:36:07;8.02;;;6.78;;
3016;SDS011;1518;52.408;13.060;2023-03-01T05:38:56;8.35;;;6.63;;
3016;SDS011;1518;52.408;13.060;2023-03-01T05:41:44;9.82;;;6.75;;
3016;SDS011;1518;52.408;13.060;2023-03-01T05:44:32;7.95;;;6.70;;
3016;SDS011;1518;52.408;13.060;2023-03-01T05:47:20;7.15;;;6.45;;
3016;SDS011;1518;52.408;13.060;2023-03-01T05:50:10;8.00;;;6.78;;
3016;SDS011;1518;52.408;13.060;2023-03-01T05:53:01;8.18;;;6.80;;
3016;SDS011;1518;52.408;13.060;2023-03-01T05:55:52;8.10;;;6.47;;
3016;SDS011;1518;52.408;13.060;2023-03-01T05:58:40;7.70;;;6.38;;
3016;SDS011;1518;52.408;13.060;2023-03-01T06:01:28;7.15;;;6.25;;
3016;SDS011;1518;52.408;13.060;2023-03-01T06:04:16;8.00;;;6.63;;
3016;SDS011;1518;52.408;13.060;2023-03-01T06:07:04;9.32;;;6.90;;
3016;SDS011;1518;52.408;13.060;2023-03-01T06:09:54;7.18;;;6.43;;
3016;SDS011;1518;52.408;13.060;2023-03-01T06:12:42;7.88;;;6.38;;
3016;SDS011;1518;52.408;13.060;2023-03-01T06:15:31;8.23;;;7.18;;
3016;SDS011;1518;52.408;13.060;2023-03-01T06:18:19;8.40;;;7.05;;
3016;SDS011;1518;52.408;13.060;2023-03-01T06:21:07;7.93;;;6.90;;
3016;SDS011;1518;52.408;13.060;2023-03-01T06:23:56;7.85;;;6.28;;
3016;SDS011;1518;52.408;13.060;2023-03-01T06:26:45;7.43;;;6.72;;
3016;SDS011;1518;52.408;13.060;2023-03-01T06:29:33;8.70;;;7.68;;
3016;SDS011;1518;52.408;13.060;2023-03-01T06:32:21;8.45;;;6.63;;
3016;SDS011;1518;52.408;13.060;2023-03-01T06:35:10;8.40;;;6.85;;
3016;SDS011;1518;52.408;13.060;2023-03-01T06:38:00;8.30;;;7.43;;
3016;SDS011;1518;52.408;13.060;2023-03-01T06:40:51;9.52;;;7.35;;
3016;SDS011;1518;52.408;13.060;2023-03-01T06:43:41;8.32;;;6.80;;
3016;SDS011;1518;52.408;13.060;2023-03-01T06:46:29;7.72;;;6.93;;
3016;SDS011;1518;52.408;13.060;2023-03-01T06:49:18;8.48;;;6.75;;
3016;SDS011;1518;52.408;13.060;2023-03-01T06:52:07;9.00;;;7.82;;
3016;SDS011;1518;52.408;13.060;2023-03-01T06:54:55;15.77;;;9.82;;
3016;SDS011;1518;52.408;13.060;2023-03-01T06:57:43;12.07;;;8.02;;
3016;SDS011;1518;52.408;13.060;2023-03-01T07:00:33;10.93;;;9.15;;
3016;SDS011;1518;52.408;13.060;2023-03-01T07:03:21;13.38;;;9.25;;
3016;SDS011;1518;52.408;13.060;2023-03-01T07:06:10;10.43;;;8.32;;
3016;SDS011;1518;52.408;13.060;2023-03-01T07:08:58;11.75;;;9.07;;
3016;SDS011;1518;52.408;13.060;2023-03-01T07:11:46;8.02;;;7.13;;
3016;SDS011;1518;52.408;13.060;2023-03-01T07:14:34;10.07;;;7.85;;
3016;SDS011;1518;52.408;13.060;2023-03-01T07:17:24;9.05;;;7.90;;
3016;SDS011;1518;52.408;13.060;2023-03-01T07:20:12;10.45;;;8.15;;
3016;SDS011;1518;52.408;13.060;2023-03-01T07:23:00;10.90;;;7.60;;
3016;SDS011;1518;52.408;13.060;2023-03-01T07:25:52;11.40;;;8.32;;
3016;SDS011;1518;52.408;13.060;2023-03-01T07:28:40;10.98;;;7.50;;
3016;SDS011;1518;52.408;13.060;2023-03-01T07:31:28;9.30;;;7.70;;
3016;SDS011;1518;52.408;13.060;2023-03-01T07:34:18;8.00;;;7.25;;
3016;SDS011;1518;52.408;13.060;2023-03-01T07:37:06;11.90;;;7.30;;
3016;SDS011;1518;52.408;13.060;2023-03-01T07:39:54;10.35;;;7.22;;
3016;SDS011;1518;52.408;13.060;2023-03-01T07:42:42;8.48;;;7.35;;
3016;SDS011;1518;52.408;13.060;2023-03-01T07:45:30;8.07;;;6.15;;
3016;SDS011;1518;52.408;13.060;2023-03-01T07:48:18;7.25;;;6.53;;
3016;SDS011;1518;52.408;13.060;2023-03-01T07:51:07;7.05;;;6.22;;
3016;SDS011;1518;52.408;13.060;2023-03-01T07:53:57;7.47;;;6.13;;
3016;SDS011;1518;52.408;13.060;2023-03-01T07:56:45;11.02;;;7.35;;
3016;SDS011;1518;52.408;13.060;2023-03-01T07:59:33;7.85;;;7.03;;
3016;SDS011;1518;52.408;13.060;2023-03-01T08:02:22;9.30;;;7.10;;
3016;SDS011;1518;52.408;13.060;2023-03-01T08:05:10;8.40;;;6.93;;
3016;SDS011;1518;52.408;13.060;2023-03-01T08:08:00;7.78;;;6.20;;
3016;SDS011;1518;52.408;13.060;2023-03-01T08:10:48;7.68;;;6.55;;
3016;SDS011;1518;52.408;13.060;2023-03-01T08:13:36;7.85;;;7.10;;
3016;SDS011;1518;52.408;13.060;2023-03-01T08:16:24;7.72;;;6.82;;
3016;SDS011;1518;52.408;13.060;2023-03-01T08:19:12;7.97;;;7.03;;
3016;SDS011;1518;52.408;13.060;2023-03-01T08:22:00;8.23;;;7.38;;
3016;SDS011;1518;52.408;13.060;2023-03-01T08:24:50;8.13;;;7.32;;
3016;SDS011;1518;52.408;13.060;2023-03-01T08:27:38;7.88;;;6.32;;
3016;SDS011;1518;52.408;13.060;2023-03-01T08:30:27;9.55;;;6.72;;
3016;SDS011;1518;52.408;13.060;2023-03-01T08:33:15;9.00;;;7.32;;
3016;SDS011;1518;52.408;13.060;2023-03-01T08:36:03;9.45;;;7.07;;
3016;SDS011;1518;52.408;13.060;2023-03-01T08:38:53;11.10;;;6.20;;
3016;SDS011;1518;52.408;13.060;2023-03-01T08:41:43;8.30;;;6.65;;
3016;SDS011;1518;52.408;13.060;2023-03-01T08:44:33;7.20;;;6.50;;
3016;SDS011;1518;52.408;13.060;2023-03-01T08:47:22;6.88;;;6.22;;
3016;SDS011;1518;52.408;13.060;2023-03-01T08:50:10;8.10;;;6.05;;
3016;SDS011;1518;52.408;13.060;2023-03-01T08:52:58;7.40;;;6.60;;
3016;SDS011;1518;52.408;13.060;2023-03-01T08:55:46;7.85;;;6.40;;
3016;SDS011;1518;52.408;13.060;2023-03-01T08:58:37;5.97;;;5.47;;
3016;SDS011;1518;52.408;13.060;2023-03-01T09:01:26;7.10;;;6.03;;
3016;SDS011;1518;52.408;13.060;2023-03-01T09:04:14;7.07;;;6.38;;
3016;SDS011;1518;52.408;13.060;2023-03-01T09:07:03;6.10;;;5.57;;
3016;SDS011;1518;52.408;13.060;2023-03-01T09:09:51;6.28;;;5.32;;
3016;SDS011;1518;52.408;13.060;2023-03-01T09:12:40;7.00;;;5.55;;
3016;SDS011;1518;52.408;13.060;2023-03-01T09:15:30;6.88;;;5.07;;
3016;SDS011;1518;52.408;13.060;2023-03-01T09:18:19;7.75;;;5.47;;
3016;SDS011;1518;52.408;13.060;2023-03-01T09:21:08;5.43;;;4.93;;
3016;SDS011;1518;52.408;13.060;2023-03-01T09:23:57;5.05;;;4.55;;
3016;SDS011;1518;52.408;13.060;2023-03-01T09:26:46;6.13;;;5.15;;
3016;SDS011;1518;52.408;13.060;2023-03-01T09:29:37;5.38;;;4.88;;
3016;SDS011;1518;52.408;13.060;2023-03-01T09:32:26;6.35;;;4.95;;
3016;SDS011;1518;52.408;13.060;2023-03-01T09:35:14;6.10;;;5.22;;
3016;SDS011;1518;52.408;13.060;2023-03-01T09:38:02;6.63;;;5.35;;
3016;SDS011;1518;52.408;13.060;2023-03-01T09:40:50;7.05;;;5.15;;
3016;SDS011;1518;52.408;13.060;2023-03-01T09:43:41;5.50;;;4.95;;
3016;SDS011;1518;52.408;13.060;2023-03-01T09:46:33;5.38;;;4.82;;
3016;SDS011;1518;52.408;13.060;2023-03-01T09:49:30;6.85;;;4.95;;
3016;SDS011;1518;52.408;13.060;2023-03-01T09:52:23;5.28;;;4.78;;
3016;SDS011;1518;52.408;13.060;2023-03-01T09:55:17;8.10;;;5.10;;
3016;SDS011;1518;52.408;13.060;2023-03-01T10:01:27;6.00;;;4.70;;
3016;SDS011;1518;52.408;13.060;2023-03-01T10:04:26;5.97;;;4.45;;
3016;SDS011;1518;52.408;13.060;2023-03-01T10:07:27;8.38;;;4.70;;
3016;SDS011;1518;52.408;13.060;2023-03-01T10:10:26;4.95;;;4.35;;
3016;SDS011;1518;52.408;13.060;2023-03-01T10:13:19;5.60;;;4.65;;
3016;SDS011;1518;52.408;13.060;2023-03-01T10:16:12;5.35;;;4.20;;
3016;SDS011;1518;52.408;13.060;2023-03-01T10:19:03;5.95;;;3.90;;
3016;SDS011;1518;52.408;13.060;2023-03-01T10:21:53;5.97;;;4.63;;
3016;SDS011;1518;52.408;13.060;2023-03-01T10:24:48;8.23;;;4.18;;
3016;SDS011;1518;52.408;13.060;2023-03-01T10:27:38;3.95;;;3.55;;
3016;SDS011;1518;52.408;13.060;2023-03-01T10:30:38;4.75;;;3.88;;
3016;SDS011;1518;52.408;13.060;2023-03-01T10:33:29;5.13;;;4.00;;
3016;SDS011;1518;52.408;13.060;2023-03-01T10:36:20;4.47;;;3.83;;
3016;SDS011;1518;52.408;13.060;2023-03-01T10:39:14;5.22;;;4.13;;
3016;SDS011;1518;52.408;13.060;2023-03-01T10:42:05;4.28;;;3.85;;
3016;SDS011;1518;52.408;13.060;2023-03-01T10:45:16;5.70;;;3.92;;
3016;SDS011;1518;52.408;13.060;2023-03-01T10:48:15;4.10;;;3.70;;
3016;SDS011;1518;52.408;13.060;2023-03-01T10:51:06;5.45;;;4.38;;
3016;SDS011;1518;52.408;13.060;2023-03-01T10:53:55;4.90;;;4.38;;
3016;SDS011;1518;52.408;13.060;2023-03-01T10:56:48;4.53;;;3.90;;
3016;SDS011;1518;52.408;13.060;2023-03-01T10:59:39;3.58;;;3.22;;
3016;SDS011;1518;52.408;13.060;2023-03-01T11:02:28;4.00;;;3.67;;
3016;SDS011;1518;52.408;13.060;2023-03-01T11:05:20;5.32;;;4.05;;
3016;SDS011;1518;52.408;13.060;2023-03-01T11:08:11;4.03;;;3.40;;
3016;SDS011;1518;52.408;13.060;2023-03-01T11:11:06;3.70;;;2.85;;
3016;SDS011;1518;52.408;13.060;2023-03-01T11:14:06;5.70;;;3.65;;
3016;SDS011;1518;52.408;13.060;2023-03-01T11:17:12;4.05;;;3.58;;
3016;SDS011;1518;52.408;13.060;2023-03-01T11:20:06;5.28;;;3.78;;
3016;SDS011;1518;52.408;13.060;2023-03-01T11:23:14;4.15;;;3.75;;
3016;SDS011;1518;52.408;13.060;2023-03-01T11:26:05;3.90;;;3.60;;
3016;SDS011;1518;52.408;13.060;2023-03-01T11:28:58;3.42;;;3.13;;
3016;SDS011;1518;52.408;13.060;2023-03-01T11:31:51;5.30;;;3.20;;
3016;SDS011;1518;52.408;13.060;2023-03-01T11:34:44;4.13;;;3.83;;
3016;SDS011;1518;52.408;13.060;2023-03-01T11:37:40;3.50;;;3.03;;
3016;SDS011;1518;52.408;13.060;2023-03-01T11:40:33;3.85;;;3.50;;
3016;SDS011;1518;52.408;13.060;2023-03-01T11:43:29;5.13;;;3.47;;
3016;SDS011;1518;52.408;13.060;2023-03-01T11:46:38;5.30;;;3.13;;
3016;SDS011;1518;52.408;13.060;2023-03-01T11:49:52;4.40;;;3.08;;
3016;SDS011;1518;52.408;13.060;2023-03-01T11:53:15;3.67;;;2.95;;
3016;SDS011;1518;52.408;13.060;2023-03-01T11:56:16;5.78;;;3.35;;
3016;SDS011;1518;52.408;13.060;2023-03-01T11:59:18;3.00;;;2.70;;
3016;SDS011;1518;52.408;13.060;2023-03-01T12:02:38;3.60;;;3.25;;
3016;SDS011;1518;52.408;13.060;2023-03-01T12:09:17;2.75;;;2.53;;
3016;SDS011;1518;52.408;13.060;2023-03-01T12:12:26;2.80;;;2.60;;
3016;SDS011;1518;52.408;13.060;2023-03-01T12:15:33;6.47;;;3.03;;
3016;SDS011;1518;52.408;13.060;2023-03-01T12:18:45;3.30;;;3.00;;
3016;SDS011;1518;52.408;13.060;2023-03-01T12:21:56;2.80;;;2.53;;
3016;SDS011;1518;52.408;13.060;2023-03-01T12:24:57;3.92;;;2.75;;
3016;SDS011;1518;52.408;13.060;2023-03-01T12:28:09;2.65;;;2.35;;
3016;SDS011;1518;52.408;13.060;2023-03-01T12:31:21;2.88;;;2.58;;
3016;SDS011;1518;52.408;13.060;2023-03-01T12:37:42;2.53;;;2.33;;
3016;SDS011;1518;52.408;13.060;2023-03-01T12:40:45;2.80;;;2.60;;
3016;SDS011;1518;52.408;13.060;2023-03-01T12:43:46;2.65;;;2.45;;
3016;SDS011;1518;52.408;13.060;2023-03-01T12:46:48;2.78;;;2.58;;
3016;SDS011;1518;52.408;13.060;2023-03-01T12:49:54;3.05;;;2.35;;
3016;SDS011;1518;52.408;13.060;2023-03-01T12:52:47;2.63;;;2.33;;
3016;SDS011;1518;52.408;13.060;2023-03-01T12:55:39;3.75;;;2.50;;
3016;SDS011;1518;52.408;13.060;2023-03-01T12:58:31;4.45;;;2.75;;
3016;SDS011;1518;52.408;13.060;2023-03-01T13:01:36;2.60;;;2.40;;
3016;SDS011;1518;52.408;13.060;2023-03-01T13:04:35;2.88;;;2.50;;
3016;SDS011;1518;52.408;13.060;2023-03-01T13:07:34;5.93;;;2.17;;
3016;SDS011;1518;52.408;13.060;2023-03-01T13:10:27;3.83;;;2.65;;
3016;SDS011;1518;52.408;13.060;2023-03-01T13:13:22;3.10;;;2.83;;
3016;SDS011;1518;52.408;13.060;2023-03-01T13:16:20;4.10;;;2.20;;
3016;SDS011;1518;52.408;13.060;2023-03-01T13:19:26;4.00;;;2.60;;
3016;SDS011;1518;52.408;13.060;2023-03-01T13:22:27;2.85;;;2.40;;
3016;SDS011;1518;52.408;13.060;2023-03-01T13:25:19;2.75;;;2.45;;
3016;SDS011;1518;52.408;13.060;2023-03-01T13:34:57;2.92;;;2.63;;
3016;SDS011;1518;52.408;13.060;2023-03-01T13:37:47;2.42;;;2.22;;
3016;SDS011;1518;52.408;13.060;2023-03-01T13:43:47;2.25;;;1.80;;
3016;SDS011;1518;52.408;13.060;2023-03-01T13:46:35;2.70;;;2.50;;
3016;SDS011;1518;52.408;13.060;2023-03-01T13:49:25;2.28;;;2.08;;
3016;SDS011;1518;52.408;13.060;2023-03-01T13:52:37;4.05;;;2.58;;
3016;SDS011;1518;52.408;13.060;2023-03-01T13:55:30;3.20;;;2.28;;
3016;SDS011;1518;52.408;13.060;2023-03-01T13:58:27;2.55;;;2.35;;
3016;SDS011;1518;52.408;13.060;2023-03-01T14:01:21;2.42;;;2.22;;
3016;SDS011;1518;52.408;13.060;2023-03-01T14:04:18;2.58;;;2.30;;
3016;SDS011;1518;52.408;13.060;2023-03-01T14:07:09;2.03;;;1.92;;
3016;SDS011;1518;52.408;13.060;2023-03-01T14:10:00;2.13;;;2.03;;
3016;SDS011;1518;52.408;13.060;2023-03-01T14:12:51;3.20;;;2.10;;
3016;SDS011;1518;52.408;13.060;2023-03-01T14:15:50;2.60;;;2.08;;
3016;SDS011;1518;52.408;13.060;2023-03-01T14:18:53;2.95;;;2.20;;
3016;SDS011;1518;52.408;13.060;2023-03-01T14:21:48;2.25;;;1.60;;
3016;SDS011;1518;52.408;13.060;2023-03-01T14:24:50;2.38;;;2.03;;
3016;SDS011;1518;52.408;13.060;2023-03-01T14:27:39;2.53;;;2.20;;
3016;SDS011;1518;52.408;13.060;2023-03-01T14:30:30;2.63;;;2.00;;
3016;SDS011;1518;52.408;13.060;2023-03-01T14:33:24;2.30;;;1.83;;
3016;SDS011;1518;52.408;13.060;2023-03-01T14:36:13;2.25;;;2.05;;
3016;SDS011;1518;52.408;13.060;2023-03-01T14:39:15;2.67;;;2.20;;
3016;SDS011;1518;52.408;13.060;2023-03-01T14:42:04;2.35;;;2.15;;
3016;SDS011;1518;52.408;13.060;2023-03-01T14:45:02;3.70;;;2.15;;
3016;SDS011;1518;52.408;13.060;2023-03-01T14:47:51;2.47;;;1.98;;
3016;SDS011;1518;52.408;13.060;2023-03-01T14:50:42;2.42;;;1.90;;
3016;SDS011;1518;52.408;13.060;2023-03-01T14:53:31;2.95;;;2.22;;
3016;SDS011;1518;52.408;13.060;2023-03-01T14:56:43;2.30;;;2.08;;
3016;SDS011;1518;52.408;13.060;2023-03-01T14:59:33;2.30;;;1.70;;
3016;SDS011;1518;52.408;13.060;2023-03-01T15:02:22;3.40;;;2.03;;
3016;SDS011;1518;52.408;13.060;2023-03-01T15:05:13;2.17;;;1.98;;
3016;SDS011;1518;52.408;13.060;2023-03-01T15:08:04;1.90;;;1.75;;
3016;SDS011;1518;52.408;13.060;2023-03-01T15:10:57;2.10;;;1.90;;
3016;SDS011;1518;52.408;13.060;2023-03-01T15:13:46;2.05;;;1.90;;
3016;SDS011;1518;52.408;13.060;2023-03-01T15:16:35;2.35;;;1.75;;
3016;SDS011;1518;52.408;13.060;2023-03-01T15:19:27;2.10;;;1.80;;
3016;SDS011;1518;52.408;13.060;2023-03-01T15:22:16;3.03;;;1.85;;
3016;SDS011;1518;52.408;13.060;2023-03-01T15:25:13;8.35;;;2.45;;
3016;SDS011;1518;52.408;13.060;2023-03-01T15:28:02;3.70;;;1.80;;
3016;SDS011;1518;52.408;13.060;2023-03-01T15:30:55;3.40;;;1.70;;
3016;SDS011;1518;52.408;13.060;2023-03-01T15:33:45;2.03;;;1.92;;
3016;SDS011;1518;52.408;13.060;2023-03-01T15:36:39;2.17;;;1.98;;
3016;SDS011;1518;52.408;13.060;2023-03-01T15:39:31;2.22;;;2.03;;
3016;SDS011;1518;52.408;13.060;2023-03-01T15:42:37;3.13;;;1.90;;
3016;SDS011;1518;52.408;13.060;2023-03-01T15:45:26;3.70;;;2.35;;
3016;SDS011;1518;52.408;13.060;2023-03-01T15:48:17;1.70;;;1.60;;
3016;SDS011;1518;52.408;13.060;2023-03-01T15:51:09;2.63;;;1.60;;
3016;SDS011;1518;52.408;13.060;2023-03-01T15:54:02;2.47;;;1.80;;
3016;SDS011;1518;52.408;13.060;2023-03-01T15:56:53;1.70;;;1.60;;
3016;SDS011;1518;52.408;13.060;2023-03-01T15:59:42;2.95;;;1.63;;
3016;SDS011;1518;52.408;13.060;2023-03-01T16:02:31;2.72;;;1.92;;
3016;SDS011;1518;52.408;13.060;2023-03-01T16:05:21;2.25;;;1.77;;
3016;SDS011;1518;52.408;13.060;2023-03-01T16:08:11;1.73;;;1.63;;
3016;SDS011;1518;52.408;13.060;2023-03-01T16:10:59;3.08;;;2.72;;
3016;SDS011;1518;52.408;13.060;2023-03-01T16:13:49;2.00;;;1.45;;
3016;SDS011;1518;52.408;13.060;2023-03-01T16:16:39;1.40;;;1.30;;
3016;SDS011;1518;52.408;13.060;2023-03-01T16:19:27;2.45;;;1.83;;
3016;SDS011;1518;52.408;13.060;2023-03-01T16:22:15;2.35;;;2.08;;
3016;SDS011;1518;52.408;13.060;2023-03-01T16:25:04;1.83;;;1.73;;
3016;SDS011;1518;52.408;13.060;2023-03-01T16:27:54;3.67;;;2.00;;
3016;SDS011;1518;52.408;13.060;2023-03-01T16:30:45;1.92;;;1.80;;
3016;SDS011;1518;52.408;13.060;2023-03-01T16:33:36;2.22;;;1.85;;
3016;SDS011;1518;52.408;13.060;2023-03-01T16:36:25;2.60;;;2.40;;
3016;SDS011;1518;52.408;13.060;2023-03-01T16:39:14;3.97;;;2.22;;
3016;SDS011;1518;52.408;13.060;2023-03-01T16:42:03;4.68;;;2.25;;
3016;SDS011;1518;52.408;13.060;2023-03-01T16:44:54;2.65;;;2.30;;
3016;SDS011;1518;52.408;13.060;2023-03-01T16:47:42;5.07;;;3.00;;
3016;SDS011;1518;52.408;13.060;2023-03-01T16:50:31;2.97;;;2.60;;
3016;SDS011;1518;52.408;13.060;2023-03-01T16:53:20;4.72;;;3.08;;
3016;SDS011;1518;52.408;13.060;2023-03-01T16:56:09;5.70;;;3.00;;
3016;SDS011;1518;52.408;13.060;2023-03-01T16:58:58;3.40;;;2.42;;
3016;SDS011;1518;52.408;13.060;2023-03-01T17:01:51;4.75;;;2.75;;
3016;SDS011;1518;52.408;13.060;2023-03-01T17:04:39;2.80;;;2.40;;
3016;SDS011;1518;52.408;13.060;2023-03-01T17:07:29;2.50;;;2.30;;
3016;SDS011;1518;52.408;13.060;2023-03-01T17:10:19;4.00;;;2.35;;
3016;SDS011;1518;52.408;13.060;2023-03-01T17:13:08;4.20;;;2.67;;
3016;SDS011;1518;52.408;13.060;2023-03-01T17:15:56;3.15;;;2.50;;
3016;SDS011;1518;52.408;13.060;2023-03-01T17:18:45;4.50;;;2.72;;
3016;SDS011;1518;52.408;13.060;2023-03-01T17:21:33;2.63;;;2.40;;
3016;SDS011;1518;52.408;13.060;2023-03-01T17:24:22;3.15;;;2.40;;
3016;SDS011;1518;52.408;13.060;2023-03-01T17:27:11;3.35;;;2.42;;
3016;SDS011;1518;52.408;13.060;2023-03-01T17:30:00;2.70;;;2.30;;
3016;SDS011;1518;52.408;13.060;2023-03-01T17:32:48;5.07;;;2.97;;
3016;SDS011;1518;52.408;13.060;2023-03-01T17:35:38;2.78;;;2.20;;
3016;SDS011;1518;52.408;13.060;2023-03-01T17:38:26;3.50;;;2.55;;
3016;SDS011;1518;52.408;13.060;2023-03-01T17:41:16;3.63;;;2.70;;
3016;SDS011;1518;52.408;13.060;2023-03-01T17:44:04;4.28;;;2.85;;
3016;SDS011;1518;52.408;13.060;2023-03-01T17:46:52;6.53;;;2.88;;
3016;SDS011;1518;52.408;13.060;2023-03-01T17:49:41;7.15;;;2.83;;